createdAt,value
2019-02-06T00:00:49.167Z,1019.67
2019-02-06T00:01:49.155Z,1019.64
2019-02-06T00:02:49.145Z,1019.60
2019-02-06T00:03:49.135Z,1019.58
2019-02-06T00:04:49.125Z,1019.60
2019-02-06T00:05:49.113Z,1019.56
2019-02-06T00:06:49.102Z,1019.54
2019-02-06T00:07:49.088Z,1019.54
2019-02-06T00:08:49.081Z,1019.48
2019-02-06T00:09:49.068Z,1019.57
2019-02-06T00:10:49.063Z,1019.51
2019-02-06T00:11:49.057Z,1019.49
2019-02-06T00:12:49.318Z,1019.48
2019-02-06T00:13:49.025Z,1019.53
2019-02-06T00:14:49.019Z,1019.55
2019-02-06T00:15:49.019Z,1019.57
2019-02-06T00:16:48.998Z,1019.59
2019-02-06T00:17:48.988Z,1019.57
2019-02-06T00:18:49.130Z,1019.63
2019-02-06T00:19:48.961Z,1019.60
2019-02-06T00:20:48.959Z,1019.61
2019-02-06T00:21:49.019Z,1019.65
2019-02-06T00:22:48.930Z,1019.59
2019-02-06T00:23:48.917Z,1019.65
2019-02-06T00:24:48.946Z,1019.63
2019-02-06T00:25:48.896Z,1019.60
2019-02-06T00:26:48.900Z,1019.53
2019-02-06T00:27:48.873Z,1019.53
2019-02-06T00:28:48.870Z,1019.50
2019-02-06T00:29:48.854Z,1019.48
2019-02-06T00:30:48.844Z,1019.45
2019-02-06T00:31:48.830Z,1019.44
2019-02-06T00:32:48.823Z,1019.41
2019-02-06T00:33:48.809Z,1019.36
2019-02-06T00:34:48.801Z,1019.38
2019-02-06T00:35:48.789Z,1019.38
2019-02-06T00:36:48.780Z,1019.40
2019-02-06T00:37:48.766Z,1019.44
2019-02-06T00:38:48.758Z,1019.43
2019-02-06T00:39:48.744Z,1019.44
2019-02-06T00:40:48.736Z,1019.46
2019-02-06T00:41:48.722Z,1019.47
2019-02-06T00:42:48.714Z,1019.43
2019-02-06T00:43:48.700Z,1019.46
2019-02-06T00:44:48.695Z,1019.46
2019-02-06T00:45:48.679Z,1019.45
2019-02-06T00:46:48.670Z,1019.46
2019-02-06T00:47:48.656Z,1019.45
2019-02-06T00:48:48.648Z,1019.42
2019-02-06T00:49:48.639Z,1019.40
2019-02-06T00:50:48.643Z,1019.34
2019-02-06T00:51:48.616Z,1019.31
2019-02-06T00:52:48.605Z,1019.30
2019-02-06T00:53:48.844Z,1019.32
2019-02-06T00:54:48.584Z,1019.36
2019-02-06T00:55:48.585Z,1019.39
2019-02-06T00:56:48.559Z,1019.36
2019-02-06T00:57:48.551Z,1019.35
2019-02-06T00:58:48.538Z,1019.38
2019-02-06T00:59:48.528Z,1019.36
2019-02-06T01:00:48.520Z,1019.37
2019-02-06T01:01:48.508Z,1019.38
2019-02-06T01:02:48.494Z,1019.30
2019-02-06T01:03:48.485Z,1019.31
2019-02-06T01:04:48.472Z,1019.30
2019-02-06T01:05:48.471Z,1019.29
2019-02-06T01:06:48.451Z,1019.23
2019-02-06T01:07:48.441Z,1019.26
2019-02-06T01:08:48.429Z,1019.25
2019-02-06T01:09:48.420Z,1019.21
2019-02-06T01:10:48.407Z,1019.19
2019-02-06T01:11:48.648Z,1019.20
2019-02-06T01:12:48.386Z,1019.18
2019-02-06T01:13:48.377Z,1019.16
2019-02-06T01:14:48.365Z,1019.19
2019-02-06T01:15:48.361Z,1019.16
2019-02-06T01:16:48.344Z,1019.14
2019-02-06T01:17:48.634Z,1019.11
2019-02-06T01:18:48.323Z,1019.13
2019-02-06T01:19:48.312Z,1019.13
2019-02-06T01:20:48.301Z,1019.10
2019-02-06T01:21:48.292Z,1019.09
2019-02-06T01:22:48.279Z,1019.02
2019-02-06T01:23:48.519Z,1019.01
2019-02-06T01:24:48.257Z,1019.00
2019-02-06T01:25:48.248Z,1019.05
2019-02-06T01:26:48.235Z,1019.05
2019-02-06T01:27:48.226Z,1019.07
2019-02-06T01:28:48.213Z,1019.06
2019-02-06T01:29:48.405Z,1019.09
2019-02-06T01:30:48.192Z,1019.02
2019-02-06T01:31:48.183Z,1019.02
2019-02-06T01:32:48.176Z,1019.02
2019-02-06T01:33:48.162Z,1019.02
2019-02-06T01:34:48.150Z,1019.02
2019-02-06T01:35:49.922Z,1019.03
2019-02-06T01:36:48.131Z,1019.00
2019-02-06T01:37:48.120Z,1019.00
2019-02-06T01:38:48.107Z,1018.99
2019-02-06T01:39:48.099Z,1018.99
2019-02-06T01:40:48.085Z,1018.95
2019-02-06T01:41:48.077Z,1018.94
2019-02-06T01:42:48.063Z,1018.94
2019-02-06T01:43:48.054Z,1018.97
2019-02-06T01:44:48.042Z,1018.98
2019-02-06T01:45:48.033Z,1018.94
2019-02-06T01:46:48.020Z,1018.96
2019-02-06T01:47:48.021Z,1018.96
2019-02-06T01:48:48.300Z,1018.98
2019-02-06T01:49:47.990Z,1018.97
2019-02-06T01:50:47.977Z,1019.00
2019-02-06T01:51:47.967Z,1019.06
2019-02-06T01:52:47.954Z,1018.99
2019-02-06T01:53:47.947Z,1019.03
2019-02-06T01:54:47.933Z,1019.06
2019-02-06T01:55:47.925Z,1019.05
2019-02-06T01:56:47.916Z,1019.04
2019-02-06T01:57:47.902Z,1018.93
2019-02-06T01:58:47.890Z,1018.92
2019-02-06T01:59:47.880Z,1018.90
2019-02-06T02:00:47.867Z,1018.89
2019-02-06T02:01:47.873Z,1018.86
2019-02-06T02:02:47.846Z,1018.86
2019-02-06T02:03:47.839Z,1018.86
2019-02-06T02:04:47.823Z,1018.82
2019-02-06T02:05:47.815Z,1018.84
2019-02-06T02:06:47.803Z,1018.86
2019-02-06T02:07:47.794Z,1018.86
2019-02-06T02:08:47.779Z,1018.85
2019-02-06T02:09:47.770Z,1018.83
2019-02-06T02:10:47.759Z,1018.83
2019-02-06T02:11:47.749Z,1018.83
2019-02-06T02:12:47.735Z,1018.77
2019-02-06T02:13:47.743Z,1018.75
2019-02-06T02:14:47.713Z,1018.72
2019-02-06T02:15:47.703Z,1018.71
2019-02-06T02:16:47.696Z,1018.71
2019-02-06T02:17:47.682Z,1018.73
2019-02-06T02:18:47.676Z,1018.70
2019-02-06T02:19:47.659Z,1018.71
2019-02-06T02:20:47.646Z,1018.70
2019-02-06T02:21:47.638Z,1018.68
2019-02-06T02:22:47.624Z,1018.70
2019-02-06T02:23:47.615Z,1018.75
2019-02-06T02:24:47.602Z,1018.71
2019-02-06T02:25:47.593Z,1018.72
2019-02-06T02:26:47.592Z,1018.70
2019-02-06T02:27:47.571Z,1018.72
2019-02-06T02:28:47.557Z,1018.70
2019-02-06T02:29:47.548Z,1018.68
2019-02-06T02:30:47.535Z,1018.67
2019-02-06T02:31:47.526Z,1018.67
2019-02-06T02:32:47.514Z,1018.63
2019-02-06T02:33:47.517Z,1018.65
2019-02-06T02:34:47.496Z,1018.63
2019-02-06T02:35:47.483Z,1018.61
2019-02-06T02:36:47.468Z,1018.60
2019-02-06T02:37:47.462Z,1018.59
2019-02-06T02:38:47.447Z,1018.55
2019-02-06T02:39:47.439Z,1018.59
2019-02-06T02:40:47.426Z,1018.57
2019-02-06T02:41:47.586Z,1018.54
2019-02-06T02:42:47.403Z,1018.50
2019-02-06T02:43:47.396Z,1018.45
2019-02-06T02:44:47.382Z,1018.44
2019-02-06T02:45:47.376Z,1018.41
2019-02-06T02:46:47.361Z,1018.40
2019-02-06T02:47:47.351Z,1018.38
2019-02-06T02:48:47.341Z,1018.38
2019-02-06T02:49:47.328Z,1018.34
2019-02-06T02:50:47.317Z,1018.31
2019-02-06T02:51:47.305Z,1018.26
2019-02-06T02:52:47.319Z,1018.22
2019-02-06T02:53:47.284Z,1018.14
2019-02-06T02:54:47.271Z,1018.09
2019-02-06T02:55:47.261Z,1018.07
2019-02-06T02:56:47.251Z,1018.04
2019-02-06T02:57:47.243Z,1018.06
2019-02-06T02:58:47.228Z,1018.11
2019-02-06T02:59:47.217Z,1018.15
2019-02-06T03:00:47.206Z,1018.16
2019-02-06T03:01:47.196Z,1018.12
2019-02-06T03:02:47.184Z,1018.07
2019-02-06T03:03:47.177Z,1018.04
2019-02-06T03:04:47.161Z,1018.05
2019-02-06T03:05:47.153Z,1018.04
2019-02-06T03:06:47.144Z,1018.03
2019-02-06T03:07:47.204Z,1018.00
2019-02-06T03:08:47.117Z,1017.96
2019-02-06T03:09:47.120Z,1017.93
2019-02-06T03:10:47.096Z,1017.92
2019-02-06T03:11:47.087Z,1017.88
2019-02-06T03:12:47.075Z,1017.90
2019-02-06T03:13:47.065Z,1017.87
2019-02-06T03:14:47.052Z,1017.87
2019-02-06T03:15:47.109Z,1017.88
2019-02-06T03:16:47.030Z,1017.89
2019-02-06T03:17:47.022Z,1017.83
2019-02-06T03:18:47.008Z,1017.83
2019-02-06T03:19:46.999Z,1017.78
2019-02-06T03:20:46.994Z,1017.76
2019-02-06T03:21:46.977Z,1017.76
2019-02-06T03:22:46.969Z,1017.77
2019-02-06T03:23:46.959Z,1017.72
2019-02-06T03:24:46.942Z,1017.73
2019-02-06T03:25:46.950Z,1017.71
2019-02-06T03:26:46.934Z,1017.65
2019-02-06T03:27:46.912Z,1017.61
2019-02-06T03:28:46.898Z,1017.52
2019-02-06T03:29:46.890Z,1017.52
2019-02-06T03:30:46.878Z,1017.48
2019-02-06T03:31:46.872Z,1017.45
2019-02-06T03:32:46.899Z,1017.45
2019-02-06T03:33:46.847Z,1017.41
2019-02-06T03:34:46.845Z,1017.37
2019-02-06T03:35:46.831Z,1017.34
2019-02-06T03:36:46.827Z,1017.36
2019-02-06T03:37:46.802Z,1017.35
2019-02-06T03:38:46.791Z,1017.31
2019-02-06T03:39:46.781Z,1017.29
2019-02-06T03:40:46.770Z,1017.30
2019-02-06T03:41:46.773Z,1017.27
2019-02-06T03:42:46.744Z,1017.22
2019-02-06T03:43:46.740Z,1017.18
2019-02-06T03:44:46.722Z,1017.19
2019-02-06T03:45:46.714Z,1017.19
2019-02-06T03:46:46.701Z,1017.14
2019-02-06T03:47:46.840Z,1017.17
2019-02-06T03:48:46.678Z,1017.14
2019-02-06T03:49:46.668Z,1017.08
2019-02-06T03:50:46.663Z,1017.09
2019-02-06T03:51:46.666Z,1017.07
2019-02-06T03:52:46.635Z,1017.02
2019-02-06T03:53:46.925Z,1017.03
2019-02-06T03:54:46.612Z,1017.04
2019-02-06T03:55:46.608Z,1017.01
2019-02-06T03:56:46.592Z,1017.00
2019-02-06T03:57:46.582Z,1016.98
2019-02-06T03:58:46.567Z,1016.97
2019-02-06T03:59:46.561Z,1017.03
2019-02-06T04:00:46.546Z,1017.04
2019-02-06T04:01:46.535Z,1017.06
2019-02-06T04:02:46.524Z,1017.06
2019-02-06T04:03:46.516Z,1017.07
2019-02-06T04:04:46.499Z,1017.06
2019-02-06T04:05:46.502Z,1017.01
2019-02-06T04:07:00.204Z,1017.01
2019-02-06T04:07:46.473Z,1016.97
2019-02-06T04:08:46.454Z,1016.99
2019-02-06T04:09:46.447Z,1017.00
2019-02-06T04:10:46.438Z,1016.98
2019-02-06T04:11:46.427Z,1016.99
2019-02-06T04:12:46.411Z,1017.00
2019-02-06T04:13:46.406Z,1016.96
2019-02-06T04:14:46.389Z,1016.95
2019-02-06T04:15:46.381Z,1016.94
2019-02-06T04:16:46.368Z,1016.91
2019-02-06T04:17:46.358Z,1016.89
2019-02-06T04:18:46.347Z,1016.86
2019-02-06T04:19:46.335Z,1016.91
2019-02-06T04:20:46.321Z,1016.89
2019-02-06T04:21:46.322Z,1016.92
2019-02-06T04:22:46.299Z,1016.90
2019-02-06T04:23:46.590Z,1016.93
2019-02-06T04:24:46.278Z,1016.93
2019-02-06T04:25:46.268Z,1016.91
2019-02-06T04:26:46.264Z,1016.93
2019-02-06T04:27:46.246Z,1016.94
2019-02-06T04:28:46.233Z,1016.96
2019-02-06T04:29:46.230Z,1016.96
2019-02-06T04:30:46.211Z,1016.97
2019-02-06T04:31:46.201Z,1016.96
2019-02-06T04:32:46.188Z,1016.93
2019-02-06T04:33:46.179Z,1016.90
2019-02-06T04:34:46.167Z,1016.84
2019-02-06T04:35:46.157Z,1016.80
2019-02-06T04:36:46.145Z,1016.81
2019-02-06T04:37:46.135Z,1016.81
2019-02-06T04:38:46.122Z,1016.81
2019-02-06T04:39:46.112Z,1016.82
2019-02-06T04:40:46.117Z,1016.81
2019-02-06T04:41:46.091Z,1016.76
2019-02-06T04:42:46.078Z,1016.73
2019-02-06T04:43:46.070Z,1016.77
2019-02-06T04:44:46.058Z,1016.79
2019-02-06T04:45:46.047Z,1016.76
2019-02-06T04:46:46.034Z,1016.77
2019-02-06T04:47:46.037Z,1016.76
2019-02-06T04:48:46.012Z,1016.78
2019-02-06T04:49:46.004Z,1016.74
2019-02-06T04:50:45.990Z,1016.77
2019-02-06T04:51:45.980Z,1016.70
2019-02-06T04:52:45.968Z,1016.72
2019-02-06T04:53:45.958Z,1016.73
2019-02-06T04:54:46.196Z,1016.72
2019-02-06T04:55:45.936Z,1016.73
2019-02-06T04:56:45.926Z,1016.67
2019-02-06T04:57:45.924Z,1016.66
2019-02-06T04:58:45.902Z,1016.67
2019-02-06T04:59:45.892Z,1016.69
2019-02-06T05:00:45.903Z,1016.65
2019-02-06T05:01:45.871Z,1016.65
2019-02-06T05:02:45.866Z,1016.66
2019-02-06T05:03:45.851Z,1016.65
2019-02-06T05:04:45.835Z,1016.67
2019-02-06T05:05:45.825Z,1016.64
2019-02-06T05:06:45.812Z,1016.65
2019-02-06T05:07:45.805Z,1016.65
2019-02-06T05:08:45.793Z,1016.61
2019-02-06T05:09:45.779Z,1016.61
2019-02-06T05:10:45.771Z,1016.62
2019-02-06T05:11:45.757Z,1016.61
2019-02-06T05:12:45.749Z,1016.62
2019-02-06T05:13:45.735Z,1016.60
2019-02-06T05:14:45.727Z,1016.63
2019-02-06T05:15:45.725Z,1016.64
2019-02-06T05:16:45.709Z,1016.64
2019-02-06T05:17:45.692Z,1016.60
2019-02-06T05:18:45.682Z,1016.59
2019-02-06T05:19:45.669Z,1016.57
2019-02-06T05:20:45.661Z,1016.53
2019-02-06T05:21:45.649Z,1016.53
2019-02-06T05:22:45.639Z,1016.53
2019-02-06T05:23:45.632Z,1016.53
2019-02-06T05:24:45.665Z,1016.53
2019-02-06T05:25:45.601Z,1016.51
2019-02-06T05:26:45.599Z,1016.48
2019-02-06T05:27:45.578Z,1016.48
2019-02-06T05:28:45.570Z,1016.46
2019-02-06T05:29:45.557Z,1016.53
2019-02-06T05:30:45.548Z,1016.47
2019-02-06T05:31:45.540Z,1016.48
2019-02-06T05:32:45.526Z,1016.43
2019-02-06T05:33:45.519Z,1016.41
2019-02-06T05:34:45.506Z,1016.38
2019-02-06T05:35:45.490Z,1016.37
2019-02-06T05:36:45.481Z,1016.33
2019-02-06T05:37:45.468Z,1016.31
2019-02-06T05:38:45.461Z,1016.34
2019-02-06T05:39:45.446Z,1016.35
2019-02-06T05:40:45.438Z,1016.34
2019-02-06T05:41:45.424Z,1016.33
2019-02-06T05:42:45.417Z,1016.32
2019-02-06T05:43:45.402Z,1016.31
2019-02-06T05:44:45.394Z,1016.31
2019-02-06T05:45:45.379Z,1016.26
2019-02-06T05:46:45.381Z,1016.25
2019-02-06T05:47:45.362Z,1016.23
2019-02-06T05:48:45.349Z,1016.16
2019-02-06T05:49:45.335Z,1016.19
2019-02-06T05:50:45.326Z,1016.16
2019-02-06T05:51:45.312Z,1016.12
2019-02-06T05:52:45.307Z,1016.13
2019-02-06T05:53:45.292Z,1016.14
2019-02-06T05:54:45.282Z,1016.12
2019-02-06T05:55:45.271Z,1016.13
2019-02-06T05:56:45.262Z,1016.08
2019-02-06T05:57:45.247Z,1016.12
2019-02-06T05:58:45.238Z,1016.12
2019-02-06T05:59:45.225Z,1016.08
2019-02-06T06:00:45.218Z,1016.05
2019-02-06T06:01:45.203Z,1016.07
2019-02-06T06:02:45.194Z,1016.07
2019-02-06T06:03:45.179Z,1016.06
2019-02-06T06:04:45.171Z,1016.09
2019-02-06T06:05:45.157Z,1016.07
2019-02-06T06:06:45.148Z,1016.07
2019-02-06T06:07:45.793Z,1016.12
2019-02-06T06:08:45.126Z,1016.15
2019-02-06T06:09:45.112Z,1016.12
2019-02-06T06:10:45.104Z,1016.15
2019-02-06T06:11:45.094Z,1016.16
2019-02-06T06:12:45.081Z,1016.19
2019-02-06T06:13:45.068Z,1016.21
2019-02-06T06:14:45.062Z,1016.20
2019-02-06T06:15:45.045Z,1016.24
2019-02-06T06:16:45.037Z,1016.19
2019-02-06T06:17:45.024Z,1016.19
2019-02-06T06:18:45.016Z,1016.20
2019-02-06T06:19:45.015Z,1016.19
2019-02-06T06:20:44.994Z,1016.17
2019-02-06T06:21:44.980Z,1016.14
2019-02-06T06:22:44.971Z,1016.16
2019-02-06T06:23:44.961Z,1016.19
2019-02-06T06:24:44.968Z,1016.13
2019-02-06T06:25:44.945Z,1016.12
2019-02-06T06:26:44.955Z,1016.11
2019-02-06T06:27:44.916Z,1016.09
2019-02-06T06:28:44.904Z,1016.06
2019-02-06T06:29:44.891Z,1016.02
2019-02-06T06:30:47.187Z,1016.04
2019-02-06T06:31:44.872Z,1015.98
2019-02-06T06:32:44.860Z,1015.96
2019-02-06T06:33:44.854Z,1015.96
2019-02-06T06:34:44.841Z,1015.96
2019-02-06T06:35:44.825Z,1015.93
2019-02-06T06:36:44.822Z,1015.96
2019-02-06T06:37:57.111Z,1015.96
2019-02-06T06:38:44.796Z,1015.99
2019-02-06T06:39:44.782Z,1016.00
2019-02-06T06:40:44.781Z,1016.00
2019-02-06T06:41:44.761Z,1016.04
2019-02-06T06:42:44.755Z,1016.07
2019-02-06T06:43:44.740Z,1016.06
2019-02-06T06:44:44.731Z,1016.11
2019-02-06T06:45:44.719Z,1016.05
2019-02-06T06:46:44.710Z,1016.10
2019-02-06T06:47:44.696Z,1016.09
2019-02-06T06:48:44.690Z,1016.07
2019-02-06T06:49:44.675Z,1016.08
2019-02-06T06:50:44.668Z,1016.05
2019-02-06T06:51:44.653Z,1016.03
2019-02-06T06:52:44.645Z,1016.08
2019-02-06T06:53:44.631Z,1016.03
2019-02-06T06:54:44.625Z,1016.05
2019-02-06T06:55:44.610Z,1015.98
2019-02-06T06:56:44.601Z,1016.02
2019-02-06T06:57:44.589Z,1015.99
2019-02-06T06:58:44.582Z,1016.00
2019-02-06T06:59:44.568Z,1015.98
2019-02-06T07:00:44.559Z,1015.98
2019-02-06T07:01:44.549Z,1015.95
2019-02-06T07:02:44.539Z,1015.95
2019-02-06T07:03:44.523Z,1015.98
2019-02-06T07:04:44.516Z,1016.01
2019-02-06T07:05:44.503Z,1015.99
2019-02-06T07:06:46.439Z,1016.02
2019-02-06T07:07:44.480Z,1015.99
2019-02-06T07:08:44.472Z,1015.99
2019-02-06T07:09:44.460Z,1016.01
2019-02-06T07:10:44.452Z,1015.97
2019-02-06T07:11:44.443Z,1015.97
2019-02-06T07:12:44.429Z,1015.97
2019-02-06T07:13:44.420Z,1015.97
2019-02-06T07:14:44.439Z,1015.94
2019-02-06T07:15:44.395Z,1015.94
2019-02-06T07:16:44.388Z,1015.93
2019-02-06T07:17:44.375Z,1015.90
2019-02-06T07:18:44.366Z,1015.89
2019-02-06T07:19:44.352Z,1015.87
2019-02-06T07:20:44.344Z,1015.90
2019-02-06T07:21:44.332Z,1015.91
2019-02-06T07:22:44.323Z,1015.89
2019-02-06T07:23:44.309Z,1015.95
2019-02-06T07:24:44.304Z,1015.91
2019-02-06T07:25:44.288Z,1015.89
2019-02-06T07:26:44.280Z,1015.90
2019-02-06T07:27:44.269Z,1015.93
2019-02-06T07:28:44.258Z,1015.90
2019-02-06T07:29:44.545Z,1015.93
2019-02-06T07:30:44.237Z,1015.92
2019-02-06T07:31:44.224Z,1015.93
2019-02-06T07:32:44.216Z,1015.94
2019-02-06T07:33:44.202Z,1015.88
2019-02-06T07:34:44.194Z,1015.91
2019-02-06T07:35:44.180Z,1015.92
2019-02-06T07:36:44.172Z,1015.95
2019-02-06T07:37:44.163Z,1015.92
2019-02-06T07:38:44.162Z,1015.91
2019-02-06T07:39:44.138Z,1015.91
2019-02-06T07:40:44.129Z,1015.90
2019-02-06T07:41:44.124Z,1015.86
2019-02-06T07:42:44.132Z,1015.84
2019-02-06T07:43:44.108Z,1015.85
2019-02-06T07:44:44.087Z,1015.83
2019-02-06T07:45:44.075Z,1015.77
2019-02-06T07:46:44.067Z,1015.78
2019-02-06T07:47:44.053Z,1015.72
2019-02-06T07:48:44.056Z,1015.70
2019-02-06T07:49:44.032Z,1015.71
2019-02-06T07:50:44.024Z,1015.68
2019-02-06T07:51:44.010Z,1015.68
2019-02-06T07:52:44.003Z,1015.67
2019-02-06T07:53:43.990Z,1015.65
2019-02-06T07:54:43.985Z,1015.73
2019-02-06T07:55:43.968Z,1015.73
2019-02-06T07:56:43.961Z,1015.68
2019-02-06T07:57:43.948Z,1015.69
2019-02-06T07:58:43.941Z,1015.64
2019-02-06T07:59:43.928Z,1015.66
2019-02-06T08:00:43.918Z,1015.61
2019-02-06T08:01:43.911Z,1015.65
2019-02-06T08:02:43.899Z,1015.63
2019-02-06T08:03:43.884Z,1015.67
2019-02-06T08:04:43.876Z,1015.65
2019-02-06T08:05:43.863Z,1015.59
2019-02-06T08:06:43.857Z,1015.58
2019-02-06T08:07:43.842Z,1015.60
2019-02-06T08:08:43.838Z,1015.61
2019-02-06T08:09:43.823Z,1015.58
2019-02-06T08:10:43.814Z,1015.62
2019-02-06T08:11:43.800Z,1015.61
2019-02-06T08:12:43.794Z,1015.64
2019-02-06T08:13:43.780Z,1015.59
2019-02-06T08:14:43.771Z,1015.60
2019-02-06T08:15:43.759Z,1015.62
2019-02-06T08:16:43.751Z,1015.62
2019-02-06T08:17:43.738Z,1015.61
2019-02-06T08:18:43.744Z,1015.59
2019-02-06T08:19:43.718Z,1015.59
2019-02-06T08:20:43.709Z,1015.64
2019-02-06T08:21:43.697Z,1015.55
2019-02-06T08:22:43.689Z,1015.60
2019-02-06T08:23:43.676Z,1015.56
2019-02-06T08:24:43.667Z,1015.57
2019-02-06T08:25:43.658Z,1015.57
2019-02-06T08:26:43.648Z,1015.59
2019-02-06T08:27:43.634Z,1015.61
2019-02-06T08:28:43.627Z,1015.63
2019-02-06T08:29:43.613Z,1015.63
2019-02-06T08:30:43.606Z,1015.66
2019-02-06T08:31:43.595Z,1015.67
2019-02-06T08:32:43.599Z,1015.69
2019-02-06T08:33:43.574Z,1015.72
2019-02-06T08:34:43.564Z,1015.77
2019-02-06T08:35:43.551Z,1015.80
2019-02-06T08:36:43.544Z,1015.81
2019-02-06T08:37:43.535Z,1015.82
2019-02-06T08:38:48.002Z,1015.83
2019-02-06T08:39:43.510Z,1015.82
2019-02-06T08:40:43.515Z,1015.91
2019-02-06T08:41:43.491Z,1015.92
2019-02-06T08:42:43.485Z,1015.93
2019-02-06T08:43:43.472Z,1015.94
2019-02-06T08:44:43.462Z,1015.97
2019-02-06T08:45:43.449Z,1015.97
2019-02-06T08:46:43.442Z,1015.97
2019-02-06T08:47:43.428Z,1015.97
2019-02-06T08:48:43.421Z,1015.93
2019-02-06T08:49:43.410Z,1015.97
2019-02-06T08:50:43.406Z,1015.99
2019-02-06T08:51:43.389Z,1015.95
2019-02-06T08:52:43.381Z,1016.01
2019-02-06T08:53:43.371Z,1016.03
2019-02-06T08:54:43.362Z,1015.98
2019-02-06T08:55:43.349Z,1015.94
2019-02-06T08:56:43.342Z,1015.95
2019-02-06T08:57:43.331Z,1015.98
2019-02-06T08:58:43.323Z,1015.94
2019-02-06T08:59:43.312Z,1015.95
2019-02-06T09:00:43.303Z,1015.93
2019-02-06T09:01:43.293Z,1015.92
2019-02-06T09:02:43.285Z,1015.91
2019-02-06T09:03:43.272Z,1015.91
2019-02-06T09:04:43.264Z,1015.91
2019-02-06T09:05:43.266Z,1015.93
2019-02-06T09:06:43.246Z,1015.93
2019-02-06T09:07:43.238Z,1015.92
2019-02-06T09:08:43.226Z,1015.96
2019-02-06T09:09:43.645Z,1016.01
2019-02-06T09:10:43.210Z,1016.01
2019-02-06T09:11:43.208Z,1015.98
2019-02-06T09:12:43.187Z,1016.00
2019-02-06T09:13:43.176Z,1015.97
2019-02-06T09:14:43.169Z,1015.92
2019-02-06T09:15:43.157Z,1015.95
2019-02-06T09:16:43.157Z,1015.97
2019-02-06T09:17:43.210Z,1015.91
2019-02-06T09:18:43.131Z,1015.97
2019-02-06T09:19:43.119Z,1015.96
2019-02-06T09:20:43.112Z,1015.92
2019-02-06T09:21:43.102Z,1015.88
2019-02-06T09:22:43.094Z,1015.93
2019-02-06T09:23:43.084Z,1015.92
2019-02-06T09:24:43.072Z,1015.93
2019-02-06T09:25:43.066Z,1015.91
2019-02-06T09:26:43.053Z,1015.94
2019-02-06T09:27:43.046Z,1015.92
2019-02-06T09:28:43.034Z,1015.93
2019-02-06T09:29:43.027Z,1015.94
2019-02-06T09:30:43.018Z,1015.89
2019-02-06T09:31:43.008Z,1015.94
2019-02-06T09:32:42.997Z,1015.92
2019-02-06T09:33:42.991Z,1015.95
2019-02-06T09:34:42.979Z,1015.92
2019-02-06T09:35:42.979Z,1015.92
2019-02-06T09:36:42.961Z,1015.97
2019-02-06T09:37:42.978Z,1015.90
2019-02-06T09:38:42.943Z,1015.90
2019-02-06T09:39:42.933Z,1015.89
2019-02-06T09:40:42.928Z,1015.87
2019-02-06T09:41:42.916Z,1015.89
2019-02-06T09:42:42.904Z,1015.85
2019-02-06T09:43:42.897Z,1015.82
2019-02-06T09:44:42.887Z,1015.85
2019-02-06T09:45:42.879Z,1015.83
2019-02-06T09:46:42.868Z,1015.83
2019-02-06T09:47:42.860Z,1015.84
2019-02-06T09:48:42.849Z,1015.82
2019-02-06T09:49:42.843Z,1015.87
2019-02-06T09:50:42.833Z,1015.88
2019-02-06T09:51:42.825Z,1015.80
2019-02-06T09:52:42.816Z,1015.83
2019-02-06T09:53:42.809Z,1015.79
2019-02-06T09:54:42.797Z,1015.81
2019-02-06T09:55:42.788Z,1015.84
2019-02-06T09:56:42.779Z,1015.81
2019-02-06T09:57:42.773Z,1015.84
2019-02-06T09:58:42.762Z,1015.84
2019-02-06T09:59:42.753Z,1015.83
2019-02-06T10:00:42.742Z,1015.83
2019-02-06T10:01:42.737Z,1015.86
2019-02-06T10:02:42.724Z,1015.81
2019-02-06T10:03:42.718Z,1015.79
2019-02-06T10:04:42.707Z,1015.81
2019-02-06T10:05:42.701Z,1015.79
2019-02-06T10:06:42.689Z,1015.87
2019-02-06T10:07:42.693Z,1015.77
2019-02-06T10:08:42.670Z,1015.76
2019-02-06T10:09:42.664Z,1015.79
2019-02-06T10:10:42.654Z,1015.73
2019-02-06T10:11:42.645Z,1015.75
2019-02-06T10:12:42.634Z,1015.68
2019-02-06T10:13:42.627Z,1015.69
2019-02-06T10:14:42.616Z,1015.74
2019-02-06T10:15:42.609Z,1015.74
2019-02-06T10:16:42.598Z,1015.70
2019-02-06T10:17:42.592Z,1015.68
2019-02-06T10:18:42.582Z,1015.70
2019-02-06T10:19:42.676Z,1015.73
2019-02-06T10:20:42.562Z,1015.69
2019-02-06T10:21:42.556Z,1015.70
2019-02-06T10:22:42.548Z,1015.71
2019-02-06T10:23:42.537Z,1015.72
2019-02-06T10:24:42.526Z,1015.71
2019-02-06T10:25:42.635Z,1015.69
2019-02-06T10:26:42.508Z,1015.73
2019-02-06T10:27:42.501Z,1015.68
2019-02-06T10:28:42.494Z,1015.74
2019-02-06T10:29:42.484Z,1015.77
2019-02-06T10:30:42.473Z,1015.74
2019-02-06T10:31:42.481Z,1015.76
2019-02-06T10:32:42.456Z,1015.79
2019-02-06T10:33:42.448Z,1015.71
2019-02-06T10:34:42.437Z,1015.69
2019-02-06T10:35:42.465Z,1015.71
2019-02-06T10:36:42.419Z,1015.74
2019-02-06T10:37:42.413Z,1015.72
2019-02-06T10:38:42.402Z,1015.68
2019-02-06T10:39:42.398Z,1015.71
2019-02-06T10:40:42.385Z,1015.70
2019-02-06T10:41:42.378Z,1015.68
2019-02-06T10:42:42.366Z,1015.64
2019-02-06T10:43:42.358Z,1015.66
2019-02-06T10:44:42.360Z,1015.66
2019-02-06T10:45:42.343Z,1015.66
2019-02-06T10:46:42.332Z,1015.66
2019-02-06T10:47:42.323Z,1015.64
2019-02-06T10:48:43.906Z,1015.66
2019-02-06T10:49:42.321Z,1015.63
2019-02-06T10:50:42.295Z,1015.68
2019-02-06T10:51:42.290Z,1015.62
2019-02-06T10:52:42.281Z,1015.71
2019-02-06T10:53:42.273Z,1015.62
2019-02-06T10:54:42.266Z,1015.62
2019-02-06T10:55:42.271Z,1015.60
2019-02-06T10:56:42.243Z,1015.60
2019-02-06T10:57:42.236Z,1015.59
2019-02-06T10:58:42.226Z,1015.59
2019-02-06T10:59:42.219Z,1015.58
2019-02-06T11:00:42.217Z,1015.53
2019-02-06T11:01:42.297Z,1015.54
2019-02-06T11:02:42.195Z,1015.54
2019-02-06T11:03:42.183Z,1015.51
2019-02-06T11:04:42.173Z,1015.54
2019-02-06T11:05:42.166Z,1015.52
2019-02-06T11:06:42.162Z,1015.52
2019-02-06T11:07:42.149Z,1015.48
2019-02-06T11:08:42.139Z,1015.48
2019-02-06T11:09:45.881Z,1015.50
2019-02-06T11:10:42.121Z,1015.48
2019-02-06T11:11:42.123Z,1015.50
2019-02-06T11:12:42.104Z,1015.45
2019-02-06T11:13:42.099Z,1015.51
2019-02-06T11:14:42.090Z,1015.46
2019-02-06T11:15:42.079Z,1015.44
2019-02-06T11:16:42.077Z,1015.47
2019-02-06T11:17:42.064Z,1015.48
2019-02-06T11:18:44.396Z,1015.40
2019-02-06T11:19:43.163Z,1015.41
2019-02-06T11:20:42.035Z,1015.42
2019-02-06T11:21:42.029Z,1015.41
2019-02-06T11:22:42.019Z,1015.39
2019-02-06T11:23:42.011Z,1015.36
2019-02-06T11:24:42.001Z,1015.40
2019-02-06T11:25:41.996Z,1015.44
2019-02-06T11:26:41.987Z,1015.43
2019-02-06T11:27:41.978Z,1015.46
2019-02-06T11:28:41.967Z,1015.42
2019-02-06T11:29:42.112Z,1015.44
2019-02-06T11:30:41.955Z,1015.44
2019-02-06T11:31:41.944Z,1015.44
2019-02-06T11:32:41.935Z,1015.41
2019-02-06T11:33:41.928Z,1015.43
2019-02-06T11:34:41.919Z,1015.38
2019-02-06T11:35:41.914Z,1015.37
2019-02-06T11:36:41.901Z,1015.31
2019-02-06T11:37:41.895Z,1015.28
2019-02-06T11:38:41.887Z,1015.28
2019-02-06T11:39:41.884Z,1015.25
2019-02-06T11:40:41.871Z,1015.25
2019-02-06T11:41:41.863Z,1015.21
2019-02-06T11:42:41.854Z,1015.22
2019-02-06T11:43:41.847Z,1015.20
2019-02-06T11:44:41.836Z,1015.20
2019-02-06T11:45:41.831Z,1015.14
2019-02-06T11:46:41.820Z,1015.14
2019-02-06T11:47:41.816Z,1015.15
2019-02-06T11:48:43.452Z,1015.14
2019-02-06T11:49:41.798Z,1015.09
2019-02-06T11:50:41.788Z,1015.09
2019-02-06T11:51:41.781Z,1015.07
2019-02-06T11:52:41.773Z,1015.04
2019-02-06T11:53:41.767Z,1015.03
2019-02-06T11:54:41.756Z,1015.04
2019-02-06T11:55:41.750Z,1015.03
2019-02-06T11:56:41.739Z,1015.04
2019-02-06T11:57:41.735Z,1015.08
2019-02-06T11:58:41.725Z,1015.05
2019-02-06T11:59:41.717Z,1015.01
2019-02-06T12:00:41.707Z,1015.04
2019-02-06T12:01:41.703Z,1015.00
2019-02-06T12:02:41.692Z,1015.03
2019-02-06T12:03:41.704Z,1015.03
2019-02-06T12:04:41.676Z,1015.03
2019-02-06T12:05:41.671Z,1015.01